Time;durP1;ratioP1;P1;durP2;ratioP2;P2;SDS_P1;SDS_P2;PMS_P1;PMS_P2;Temp;Humidity;BMP_temperature;BMP_pressure;BME280_temperature;BME280_humidity;BME280_pressure;Samples;Min_cycle;Max_cycle;Signal;HPM_P1;HPM_P2
2023/01/05 00:01:06;;;;;;;1.40;1.30;;;9.60;99.90;;;;;;5065470;28;20035;-50
2023/01/05 00:03:33;;;;;;;1.35;1.27;;;9.60;99.90;;;;;;5065028;28;20021;-49
2023/01/05 00:06:00;;;;;;;1.42;1.30;;;9.60;99.90;;;;;;5055403;28;20453;-50
2023/01/05 00:08:26;;;;;;;1.17;1.08;;;9.60;99.90;;;;;;5061835;28;20030;-52
2023/01/05 00:22:33;;;;;;;1.25;1.15;;;9.60;99.90;;;;;;5091750;28;20083;-51
2023/01/05 00:25:01;;;;;;;1.20;1.10;;;9.50;99.90;;;;;;5064121;28;20041;-52
2023/01/05 00:27:27;;;;;;;1.50;1.40;;;9.60;99.90;;;;;;5054055;28;20487;-50
2023/01/05 00:29:53;;;;;;;1.20;1.20;;;9.60;99.90;;;;;;5065263;28;20082;-49
2023/01/05 00:32:19;;;;;;;1.20;1.20;;;9.60;99.90;;;;;;5071938;28;20041;-51
2023/01/05 00:34:45;;;;;;;1.83;1.13;;;9.60;99.90;;;;;;5064160;28;20087;-49
2023/01/05 00:37:10;;;;;;;1.20;1.20;;;9.60;99.90;;;;;;5054760;28;20021;-49
2023/01/05 00:46:20;;;;;;;1.27;1.17;;;9.70;99.90;;;;;;4782422;28;20076;-53
2023/01/05 00:48:46;;;;;;;1.10;1.10;;;9.80;99.90;;;;;;5033454;28;20052;-55
2023/01/05 00:51:12;;;;;;;1.00;1.00;;;9.80;99.90;;;;;;5033036;28;20041;-49
2023/01/05 00:53:37;;;;;;;2.97;1.10;;;9.80;99.90;;;;;;5033537;28;20037;-52
2023/01/05 00:56:03;;;;;;;1.35;1.00;;;9.90;99.90;;;;;;5033230;28;20455;-54
2023/01/05 00:58:29;;;;;;;2.40;1.00;;;9.80;99.90;;;;;;5033060;28;20053;-56
2023/01/05 01:00:54;;;;;;;1.20;1.20;;;9.90;99.90;;;;;;5032887;28;20029;-53
2023/01/05 01:03:20;;;;;;;1.52;1.42;;;9.90;99.90;;;;;;5032722;28;20025;-54
2023/01/05 01:05:58;;;;;;;4.07;1.27;;;9.90;99.90;;;;;;5032763;28;20419;-52
2023/01/05 01:08:24;;;;;;;1.42;1.17;;;9.90;99.90;;;;;;5032831;28;20032;-51
2023/01/05 01:10:49;;;;;;;2.95;1.10;;;9.90;99.90;;;;;;5033004;28;20033;-54
2023/01/05 01:13:15;;;;;;;1.00;1.00;;;10.00;99.90;;;;;;5033275;28;20037;-50
2023/01/05 01:15:41;;;;;;;1.73;1.10;;;9.90;99.90;;;;;;5032802;28;20115;-55
2023/01/05 01:18:06;;;;;;;1.15;1.10;;;9.90;99.90;;;;;;5032869;28;20068;-52
2023/01/05 01:20:32;;;;;;;1.00;1.00;;;9.90;99.90;;;;;;5032781;28;20029;-51
2023/01/05 01:22:59;;;;;;;1.42;1.00;;;10.00;99.90;;;;;;5032979;28;20041;-50
2023/01/05 01:25:25;;;;;;;1.15;1.15;;;9.90;99.90;;;;;;5032917;28;20121;-55
2023/01/05 01:27:51;;;;;;;1.10;1.10;;;9.90;99.90;;;;;;5032340;28;20025;-52
2023/01/05 01:30:17;;;;;;;1.38;1.05;;;10.00;99.90;;;;;;5032643;28;20033;-51
2023/01/05 01:32:42;;;;;;;1.05;1.05;;;10.00;99.90;;;;;;5030999;28;20044;-56
2023/01/05 01:35:08;;;;;;;1.42;1.00;;;10.00;99.90;;;;;;5031537;28;20028;-55
2023/01/05 01:37:34;;;;;;;1.02;0.95;;;10.00;99.90;;;;;;5032045;28;20100;-54
2023/01/05 01:39:59;;;;;;;1.00;1.00;;;10.00;99.90;;;;;;5032484;28;20053;-54
2023/01/05 01:42:25;;;;;;;1.00;1.00;;;10.10;99.90;;;;;;5032168;28;20099;-52
2023/01/05 01:44:54;;;;;;;1.00;1.00;;;10.00;99.90;;;;;;5031961;28;20036;-50
2023/01/05 01:47:29;;;;;;;1.00;1.00;;;10.00;99.90;;;;;;5031791;28;20017;-55
2023/01/05 01:49:58;;;;;;;0.93;0.93;;;9.90;99.90;;;;;;5032470;28;20368;-56
2023/01/05 01:52:26;;;;;;;1.02;1.00;;;9.90;99.90;;;;;;5031830;28;20163;-54
2023/01/05 01:54:52;;;;;;;0.90;0.90;;;9.90;99.90;;;;;;5032044;28;20040;-52
2023/01/05 01:57:18;;;;;;;1.05;1.05;;;9.90;99.90;;;;;;5032313;28;20087;-54
2023/01/05 01:59:44;;;;;;;1.00;1.00;;;9.90;99.90;;;;;;5031564;28;20437;-53
2023/01/05 02:02:11;;;;;;;1.23;1.10;;;9.80;99.90;;;;;;5030276;28;20057;-54
2023/01/05 02:04:38;;;;;;;1.00;1.00;;;9.80;99.90;;;;;;5029997;28;20029;-53
2023/01/05 02:07:06;;;;;;;1.73;1.00;;;9.80;99.90;;;;;;5030682;28;20456;-52
2023/01/05 02:09:32;;;;;;;1.00;1.00;;;9.80;99.90;;;;;;5031864;28;20028;-54
2023/01/05 02:12:08;;;;;;;1.00;1.00;;;9.90;99.90;;;;;;5031749;28;20022;-55
2023/01/05 02:14:48;;;;;;;2.20;1.17;;;9.90;99.90;;;;;;5031834;28;20409;-52
2023/01/05 02:17:27;;;;;;;1.02;1.02;;;9.90;99.90;;;;;;5031897;28;20056;-56
2023/01/05 02:20:46;;;;;;;1.00;1.00;;;9.90;99.90;;;;;;5031710;28;20026;-51
2023/01/05 02:23:36;;;;;;;2.60;1.25;;;9.90;99.90;;;;;;4989856;28;20032;-56
2023/01/05 02:26:39;;;;;;;1.60;1.30;;;9.90;99.90;;;;;;5031905;28;20029;-51
2023/01/05 02:29:36;;;;;;;1.23;1.17;;;9.90;99.90;;;;;;5031728;28;20469;-54
2023/01/05 02:32:18;;;;;;;1.00;1.00;;;9.90;99.90;;;;;;5012013;28;20049;-55
2023/01/05 02:35:08;;;;;;;1.02;1.02;;;10.10;99.90;;;;;;5028401;28;20098;-53
2023/01/05 02:37:55;;;;;;;1.25;1.10;;;10.20;99.90;;;;;;5030228;28;20021;-53
2023/01/05 02:40:28;;;;;;;0.93;0.93;;;10.20;99.90;;;;;;5023247;28;20408;-54
2023/01/05 02:42:55;;;;;;;1.27;1.20;;;10.20;99.90;;;;;;5031460;28;20355;-55
2023/01/05 02:45:22;;;;;;;1.05;1.05;;;10.20;99.90;;;;;;5031604;28;20044;-54
2023/01/05 02:47:48;;;;;;;0.88;0.88;;;10.20;99.90;;;;;;5031133;28;20025;-54
2023/01/05 02:50:23;;;;;;;1.50;1.40;;;10.30;99.90;;;;;;5031323;28;20497;-52
2023/01/05 02:52:59;;;;;;;0.90;0.90;;;10.30;99.90;;;;;;5031387;28;20049;-49
2023/01/05 02:55:41;;;;;;;0.90;0.90;;;10.30;99.90;;;;;;5031481;28;20029;-53
2023/01/05 02:58:22;;;;;;;1.20;1.10;;;10.20;99.90;;;;;;5031277;28;20029;-54
2023/01/05 03:00:54;;;;;;;2.65;0.93;;;10.30;99.90;;;;;;5030868;28;20030;-57
2023/01/05 03:03:34;;;;;;;1.75;1.10;;;10.30;99.90;;;;;;5031149;28;20021;-57
2023/01/05 03:06:27;;;;;;;1.00;1.00;;;10.30;99.90;;;;;;5031744;28;20026;-50
2023/01/05 03:08:57;;;;;;;1.00;1.00;;;10.40;99.90;;;;;;5014829;28;20041;-51
2023/01/05 03:14:49;;;;;;;1.02;1.02;;;10.50;99.90;;;;;;5024658;28;20030;-55
2023/01/05 03:17:19;;;;;;;1.00;1.00;;;10.50;99.90;;;;;;5008791;28;20123;-55
2023/01/05 03:19:47;;;;;;;1.13;1.00;;;10.60;99.90;;;;;;5020520;28;20040;-56
2023/01/05 03:36:55;;;;;;;0.90;0.90;;;10.60;99.90;;;;;;5031316;28;20490;-52
2023/01/05 03:39:25;;;;;;;1.07;1.07;;;10.60;99.90;;;;;;5031163;28;20022;-53
2023/01/05 03:41:52;;;;;;;0.98;0.98;;;10.60;99.90;;;;;;5030862;28;20575;-54
2023/01/05 03:44:18;;;;;;;1.00;1.00;;;10.60;99.90;;;;;;5030877;28;20036;-52
2023/01/05 03:46:43;;;;;;;0.85;0.85;;;10.60;99.90;;;;;;5030590;28;20041;-55
2023/01/05 03:49:10;;;;;;;0.82;0.82;;;10.80;99.90;;;;;;5030189;28;20068;-54
2023/01/05 03:51:35;;;;;;;0.80;0.80;;;10.80;99.90;;;;;;5034556;28;20455;-55
2023/01/05 03:54:01;;;;;;;4.78;1.10;;;10.80;99.90;;;;;;5034520;28;20041;-57
2023/01/05 03:56:27;;;;;;;0.90;0.90;;;10.80;99.90;;;;;;5034316;28;20084;-55
2023/01/05 03:58:52;;;;;;;0.90;0.90;;;11.00;99.90;;;;;;5034126;28;20091;-57
2023/01/05 04:01:18;;;;;;;1.00;0.95;;;11.10;99.90;;;;;;5034118;28;20051;-55
2023/01/05 04:03:43;;;;;;;6.72;1.10;;;11.10;99.90;;;;;;5033869;28;20051;-50
2023/01/05 04:06:09;;;;;;;0.90;0.90;;;11.00;99.90;;;;;;5034126;28;20164;-57
2023/01/05 04:08:35;;;;;;;0.90;0.90;;;11.10;99.90;;;;;;5032492;28;20029;-54
2023/01/05 04:11:15;;;;;;;0.90;0.90;;;11.20;99.90;;;;;;5033850;28;20021;-54
2023/01/05 04:13:41;;;;;;;0.93;0.93;;;11.20;99.90;;;;;;5033726;28;20037;-54
2023/01/05 04:16:08;;;;;;;0.90;0.90;;;11.30;99.90;;;;;;5034030;28;20075;-54
2023/01/05 04:18:33;;;;;;;1.25;1.08;;;11.30;99.90;;;;;;5033533;28;20575;-55
2023/01/05 04:20:59;;;;;;;0.90;0.90;;;11.30;99.90;;;;;;5033837;28;20033;-52
2023/01/05 04:23:25;;;;;;;0.80;0.80;;;11.30;99.90;;;;;;5032781;28;20375;-51
2023/01/05 04:25:50;;;;;;;0.85;0.85;;;11.30;99.90;;;;;;5033860;28;20056;-51
2023/01/05 04:28:16;;;;;;;0.80;0.80;;;11.30;99.90;;;;;;5034272;28;20453;-52
2023/01/05 04:30:43;;;;;;;1.10;1.00;;;11.20;99.90;;;;;;5033667;28;20471;-53
2023/01/05 04:33:09;;;;;;;0.90;0.90;;;11.00;99.90;;;;;;5033297;28;21032;-51
2023/01/05 04:35:34;;;;;;;1.00;1.00;;;10.80;99.90;;;;;;5032278;28;20030;-54
2023/01/05 04:38:00;;;;;;;0.90;0.90;;;10.60;99.90;;;;;;5033360;28;20114;-51
2023/01/05 04:40:26;;;;;;;1.02;1.00;;;10.50;99.90;;;;;;5033688;28;20487;-54
2023/01/05 04:42:51;;;;;;;1.17;1.08;;;10.40;99.90;;;;;;5033157;28;20582;-53
2023/01/05 04:45:17;;;;;;;0.80;0.80;;;10.30;99.90;;;;;;5033441;28;20037;-51
2023/01/05 04:47:43;;;;;;;1.10;1.08;;;10.30;99.90;;;;;;5032929;28;20033;-55
2023/01/05 04:50:10;;;;;;;1.00;1.00;;;10.20;99.90;;;;;;5033260;28;20468;-55
2023/01/05 04:52:36;;;;;;;0.90;0.90;;;10.10;99.90;;;;;;5033130;28;20030;-51
2023/01/05 04:55:02;;;;;;;1.05;1.00;;;10.00;99.90;;;;;;5033423;28;20028;-52
2023/01/05 04:57:27;;;;;;;1.20;1.10;;;10.00;99.90;;;;;;5033170;28;20025;-50
2023/01/05 04:59:53;;;;;;;1.05;1.02;;;10.00;99.90;;;;;;5033080;28;20041;-51
2023/01/05 05:02:18;;;;;;;0.88;0.88;;;10.10;99.90;;;;;;5032195;28;20694;-55
2023/01/05 05:04:44;;;;;;;0.90;0.90;;;10.20;99.90;;;;;;5033281;28;20021;-52
2023/01/05 05:07:10;;;;;;;1.00;1.00;;;10.30;99.90;;;;;;5033505;28;20484;-53
2023/01/05 05:09:35;;;;;;;1.30;1.20;;;10.30;99.90;;;;;;5033088;28;20060;-50
2023/01/05 05:12:01;;;;;;;0.90;0.90;;;10.40;99.90;;;;;;5033428;28;20034;-51
2023/01/05 05:14:26;;;;;;;1.52;0.80;;;10.50;99.90;;;;;;5032768;28;20033;-51
2023/01/05 05:16:52;;;;;;;1.00;1.00;;;10.80;99.90;;;;;;5031737;28;20037;-51
2023/01/05 05:19:18;;;;;;;0.90;0.90;;;10.80;99.90;;;;;;5032235;28;20116;-52
2023/01/05 05:21:43;;;;;;;0.90;0.90;;;10.70;99.90;;;;;;5032611;28;20091;-51
2023/01/05 05:24:09;;;;;;;0.82;0.82;;;10.70;99.90;;;;;;5033193;28;20032;-52
2023/01/05 05:26:34;;;;;;;0.80;0.80;;;10.70;99.90;;;;;;5032914;28;20152;-51
2023/01/05 05:29:00;;;;;;;0.90;0.90;;;10.70;99.90;;;;;;5032426;28;20060;-50
2023/01/05 05:31:26;;;;;;;0.82;0.82;;;10.70;99.90;;;;;;5032234;28;20025;-53
2023/01/05 05:33:51;;;;;;;1.40;0.90;;;10.70;99.90;;;;;;5032104;28;20037;-54
2023/01/05 05:36:17;;;;;;;1.20;0.98;;;10.70;99.90;;;;;;5032538;28;20029;-50
2023/01/05 05:38:43;;;;;;;0.90;0.90;;;10.70;99.90;;;;;;5032289;28;20033;-50
2023/01/05 05:41:09;;;;;;;2.05;0.90;;;10.70;99.90;;;;;;5032433;28;20025;-55
2023/01/05 05:43:35;;;;;;;0.98;0.98;;;10.70;99.90;;;;;;5032482;28;20051;-53
2023/01/05 05:46:00;;;;;;;1.00;1.00;;;10.60;99.90;;;;;;5032012;28;20112;-57
2023/01/05 05:48:26;;;;;;;0.90;0.90;;;10.60;99.90;;;;;;5031414;28;20033;-53
2023/01/05 05:50:52;;;;;;;0.88;0.80;;;10.60;99.90;;;;;;5032398;28;20029;-50
2023/01/05 05:53:19;;;;;;;0.90;0.90;;;10.60;99.90;;;;;;5032508;28;20476;-52
2023/01/05 05:55:50;;;;;;;1.00;1.00;;;10.60;99.90;;;;;;5032222;28;20480;-55
2023/01/05 05:58:17;;;;;;;1.00;1.00;;;10.60;99.90;;;;;;5032092;28;20038;-52
2023/01/05 06:00:43;;;;;;;0.90;0.90;;;10.60;99.90;;;;;;5031625;28;20055;-50
2023/01/05 06:03:08;;;;;;;2.35;1.00;;;10.50;99.90;;;;;;5031774;28;20049;-55
2023/01/05 06:05:34;;;;;;;1.25;1.15;;;10.50;99.90;;;;;;5032028;28;20018;-54
2023/01/05 06:08:00;;;;;;;1.10;1.10;;;10.50;99.90;;;;;;5032262;28;20108;-53
2023/01/05 06:10:26;;;;;;;2.20;1.17;;;10.50;99.90;;;;;;5031511;28;20052;-54
2023/01/05 06:12:53;;;;;;;1.60;1.20;;;10.50;99.90;;;;;;5031432;28;20052;-53
2023/01/05 06:15:19;;;;;;;1.10;1.10;;;10.70;99.90;;;;;;5027102;28;20405;-51
2023/01/05 06:17:47;;;;;;;0.90;0.90;;;10.70;99.90;;;;;;5030285;28;20048;-54
2023/01/05 06:20:13;;;;;;;1.10;1.02;;;10.80;99.90;;;;;;5031378;28;20037;-50
2023/01/05 06:22:39;;;;;;;0.95;0.90;;;10.80;99.90;;;;;;5046881;28;20099;-56
2023/01/05 06:25:05;;;;;;;1.35;1.10;;;10.90;99.90;;;;;;5032510;28;20456;-53
2023/01/05 06:27:31;;;;;;;1.20;1.10;;;11.10;99.90;;;;;;5030784;28;20577;-50
2023/01/05 06:29:56;;;;;;;1.35;1.05;;;11.20;99.90;;;;;;5030783;28;20029;-51
2023/01/05 06:32:22;;;;;;;2.72;0.80;;;11.30;99.90;;;;;;5031385;28;20052;-52
2023/01/05 06:34:48;;;;;;;2.17;1.15;;;11.20;99.90;;;;;;5030863;28;20052;-51
2023/01/05 06:37:14;;;;;;;0.93;0.93;;;11.20;99.90;;;;;;5031108;28;20037;-53
2023/01/05 06:39:40;;;;;;;0.90;0.90;;;11.20;99.90;;;;;;5029502;28;20041;-54
2023/01/05 06:42:05;;;;;;;1.10;1.10;;;11.30;99.90;;;;;;5031470;28;20033;-58
2023/01/05 06:44:31;;;;;;;0.93;0.93;;;11.30;99.90;;;;;;5030626;28;20025;-53
2023/01/05 06:46:56;;;;;;;1.08;1.05;;;11.30;99.90;;;;;;5031419;28;20040;-54
2023/01/05 06:49:22;;;;;;;3.22;1.00;;;11.30;99.90;;;;;;5031366;28;20024;-52
2023/01/05 06:51:48;;;;;;;1.52;0.90;;;11.40;99.90;;;;;;5025398;28;20407;-56
2023/01/05 06:54:13;;;;;;;0.80;0.80;;;11.40;99.90;;;;;;5031207;28;20096;-57
2023/01/05 06:56:39;;;;;;;0.90;0.90;;;11.40;99.90;;;;;;5031142;28;20124;-49
2023/01/05 06:59:05;;;;;;;1.20;1.02;;;11.40;99.90;;;;;;5030981;28;20033;-51
2023/01/05 07:01:30;;;;;;;1.10;1.10;;;11.40;99.90;;;;;;5030555;28;20088;-50
2023/01/05 07:03:56;;;;;;;1.00;1.00;;;11.20;99.90;;;;;;5015040;28;20492;-50
2023/01/05 07:06:22;;;;;;;0.93;0.93;;;10.90;99.90;;;;;;5031089;28;20479;-54
2023/01/05 07:08:48;;;;;;;1.70;1.08;;;10.70;99.90;;;;;;5030292;28;20025;-49
2023/01/05 07:11:13;;;;;;;1.88;1.10;;;10.50;99.90;;;;;;5031240;28;20026;-50
2023/01/05 07:13:51;;;;;;;0.90;0.90;;;10.40;99.90;;;;;;5030526;28;20037;-52
2023/01/05 07:16:17;;;;;;;0.90;0.90;;;10.40;99.90;;;;;;5030926;28;20032;-50
2023/01/05 07:18:43;;;;;;;1.10;1.10;;;10.40;99.90;;;;;;5030950;28;20076;-50
2023/01/05 07:21:09;;;;;;;1.90;0.98;;;10.40;99.90;;;;;;5031722;28;20033;-53
2023/01/05 07:23:36;;;;;;;1.02;1.02;;;10.40;99.90;;;;;;5030736;28;20025;-51
2023/01/05 07:26:07;;;;;;;1.17;1.08;;;10.40;99.90;;;;;;5033734;28;20025;-56
2023/01/05 07:28:34;;;;;;;1.02;1.02;;;10.60;99.90;;;;;;5034599;28;20034;-53
2023/01/05 07:31:00;;;;;;;1.50;1.27;;;10.50;99.90;;;;;;5033148;28;20026;-55
2023/01/05 07:33:25;;;;;;;3.25;1.45;;;10.50;99.90;;;;;;5034417;28;20037;-56
2023/01/05 07:35:51;;;;;;;1.30;1.30;;;10.60;99.90;;;;;;5035069;28;20369;-54
2023/01/05 07:38:17;;;;;;;1.20;1.20;;;10.60;99.90;;;;;;5034585;28;20515;-51
2023/01/05 07:40:43;;;;;;;1.02;1.02;;;10.60;99.90;;;;;;5033618;28;20034;-53
2023/01/05 07:43:08;;;;;;;3.83;1.08;;;10.60;99.90;;;;;;5034153;28;20491;-63
2023/01/05 07:45:34;;;;;;;1.42;1.33;;;10.50;99.90;;;;;;5034149;28;20398;-56
2023/01/05 07:48:01;;;;;;;2.25;1.00;;;10.30;99.90;;;;;;5032870;28;20025;-52
2023/01/05 07:50:28;;;;;;;1.10;1.10;;;10.30;99.90;;;;;;5034436;28;20034;-57
2023/01/05 07:52:54;;;;;;;1.52;1.30;;;10.30;99.90;;;;;;5034137;28;20040;-57
2023/01/05 07:55:20;;;;;;;1.42;1.35;;;10.20;99.90;;;;;;5034541;28;20648;-58
2023/01/05 07:57:46;;;;;;;2.08;1.00;;;10.30;99.90;;;;;;5033974;28;20544;-57
2023/01/05 08:00:13;;;;;;;1.08;1.08;;;10.30;99.90;;;;;;5034171;28;20061;-55
2023/01/05 08:02:40;;;;;;;1.85;1.20;;;10.30;99.90;;;;;;5033786;28;20105;-53
2023/01/05 08:05:06;;;;;;;1.35;1.00;;;10.20;99.90;;;;;;5032566;28;20033;-57
2023/01/05 08:07:31;;;;;;;1.25;1.15;;;10.20;99.90;;;;;;5033822;28;20349;-58
2023/01/05 08:15:25;;;;;;;1.30;1.20;;;9.90;99.90;;;;;;5034086;28;20045;-56
2023/01/05 08:17:51;;;;;;;1.20;1.20;;;9.80;99.90;;;;;;5033118;28;20025;-57
2023/01/05 08:20:17;;;;;;;3.60;1.73;;;9.80;99.90;;;;;;5033822;28;20027;-57
2023/01/05 08:22:42;;;;;;;1.08;1.08;;;9.90;99.90;;;;;;5033535;28;20101;-58
2023/01/05 08:25:08;;;;;;;1.95;1.20;;;9.90;99.90;;;;;;5033988;28;20049;-58
2023/01/05 08:27:34;;;;;;;1.20;1.20;;;9.90;99.90;;;;;;5031135;28;20026;-56
2023/01/05 08:30:00;;;;;;;1.33;1.23;;;9.90;99.90;;;;;;5032124;28;20116;-58
2023/01/05 08:32:25;;;;;;;3.17;1.33;;;10.00;99.90;;;;;;5033449;28;20357;-58
2023/01/05 08:34:51;;;;;;;1.00;1.00;;;10.00;99.90;;;;;;5033332;28;20037;-58
2023/01/05 08:37:18;;;;;;;2.58;1.10;;;10.10;99.90;;;;;;5032248;28;20029;-57
2023/01/05 08:39:43;;;;;;;1.00;1.00;;;10.10;99.90;;;;;;5033817;28;20022;-59
2023/01/05 08:42:09;;;;;;;1.17;1.17;;;10.20;99.90;;;;;;5033480;28;20079;-57
2023/01/05 08:44:35;;;;;;;1.38;1.10;;;10.10;99.90;;;;;;5034368;28;20091;-57
2023/01/05 08:47:01;;;;;;;1.10;1.10;;;10.20;99.90;;;;;;5034662;28;20484;-54
2023/01/05 08:49:26;;;;;;;4.13;1.10;;;10.30;99.90;;;;;;5034052;28;20029;-58
2023/01/05 08:51:52;;;;;;;7.18;3.75;;;10.30;99.90;;;;;;5034322;28;20551;-59
2023/01/05 08:54:21;;;;;;;51.15;14.52;;;10.50;99.90;;;;;;5035693;28;20503;-57
2023/01/05 08:56:49;;;;;;;1.70;1.60;;;10.50;99.90;;;;;;5034872;28;20025;-58
2023/01/05 08:59:15;;;;;;;1.20;1.10;;;10.60;99.90;;;;;;5034636;28;20133;-58
2023/01/05 09:01:41;;;;;;;1.33;1.30;;;10.70;99.90;;;;;;5034953;28;20036;-58
2023/01/05 09:04:07;;;;;;;1.30;1.20;;;10.70;99.90;;;;;;5034364;28;20025;-56
2023/01/05 09:06:33;;;;;;;3.05;2.67;;;10.70;99.90;;;;;;5034134;28;20041;-58
2023/01/05 09:09:00;;;;;;;8.05;4.72;;;10.80;99.90;;;;;;5034200;28;20030;-56
2023/01/05 09:11:26;;;;;;;5.03;2.63;;;10.80;99.90;;;;;;5034430;28;20033;-56
2023/01/05 09:14:01;;;;;;;1.85;1.63;;;10.90;99.90;;;;;;5048162;28;20399;-57
2023/01/05 09:16:30;;;;;;;1.77;1.67;;;11.00;99.90;;;;;;5054125;28;20025;-57
2023/01/05 09:18:58;;;;;;;1.75;1.65;;;11.00;99.90;;;;;;5053621;28;20037;-57
2023/01/05 09:21:23;;;;;;;1.40;1.40;;;11.00;99.90;;;;;;5055045;28;20036;-57
2023/01/05 09:23:49;;;;;;;4.28;3.45;;;11.10;99.90;;;;;;5053547;28;20025;-57
2023/01/05 09:26:15;;;;;;;6.30;4.43;;;11.10;99.90;;;;;;5048744;28;20395;-58
2023/01/05 09:28:42;;;;;;;2.92;2.38;;;11.10;99.90;;;;;;5044736;28;20032;-56
2023/01/05 09:31:09;;;;;;;5.40;4.32;;;11.10;99.90;;;;;;5029493;28;20037;-54
2023/01/05 09:33:35;;;;;;;5.75;3.72;;;11.10;99.90;;;;;;5032889;28;20029;-56
2023/01/05 09:36:04;;;;;;;1.40;1.30;;;11.00;99.90;;;;;;5033102;28;20119;-56
2023/01/05 09:38:29;;;;;;;4.60;3.28;;;11.10;99.90;;;;;;5032195;28;20033;-57
2023/01/05 09:41:01;;;;;;;6.22;2.78;;;11.10;99.90;;;;;;5032456;28;20018;-58
2023/01/05 09:43:36;;;;;;;1.30;1.20;;;11.10;99.90;;;;;;5032091;28;20025;-58
2023/01/05 09:46:06;;;;;;;4.28;2.45;;;11.20;99.90;;;;;;5032369;28;20048;-59
2023/01/05 09:48:39;;;;;;;9.65;5.25;;;11.10;99.90;;;;;;5031695;28;20032;-58
2023/01/05 09:51:06;;;;;;;1.55;1.45;;;11.10;99.90;;;;;;5032231;28;20354;-54
2023/01/05 09:53:32;;;;;;;3.65;1.92;;;11.00;99.90;;;;;;5032296;28;20068;-56
2023/01/05 09:55:58;;;;;;;1.45;1.35;;;11.00;99.90;;;;;;5032524;28;20079;-58
2023/01/05 09:58:29;;;;;;;1.30;1.20;;;11.00;99.90;;;;;;5031445;28;20403;-57
2023/01/05 10:01:16;;;;;;;2.25;1.20;;;11.00;99.90;;;;;;5031083;28;20017;-56
2023/01/05 10:03:59;;;;;;;2.78;1.60;;;10.90;99.90;;;;;;5031612;28;20061;-58
2023/01/05 10:06:31;;;;;;;4.32;3.00;;;10.90;99.90;;;;;;5030260;28;20052;-55
2023/01/05 10:08:57;;;;;;;1.83;1.67;;;10.80;99.90;;;;;;5031630;28;20420;-58
2023/01/05 10:14:47;;;;;;;2.65;1.60;;;10.90;99.90;;;;;;5012067;28;20045;-57
2023/01/05 10:17:19;;;;;;;1.13;1.13;;;10.80;99.90;;;;;;5010918;28;20542;-58
2023/01/05 10:19:46;;;;;;;9.02;4.38;;;10.70;99.90;;;;;;5026921;28;20053;-57
2023/01/05 10:22:21;;;;;;;1.90;1.70;;;10.60;99.90;;;;;;5031106;28;20018;-56
2023/01/05 10:25:13;;;;;;;1.27;1.17;;;10.60;99.90;;;;;;5031032;28;20029;-57
2023/01/05 10:27:46;;;;;;;1.52;1.42;;;10.60;99.90;;;;;;5031509;28;20056;-58
2023/01/05 10:30:37;;;;;;;2.78;1.98;;;10.60;99.90;;;;;;5031275;28;20021;-59
2023/01/05 10:33:17;;;;;;;2.05;1.88;;;10.60;99.90;;;;;;5011941;28;20036;-53
2023/01/05 10:36:01;;;;;;;2.33;1.30;;;10.40;99.90;;;;;;5016905;28;20056;-53
2023/01/05 10:38:35;;;;;;;3.85;1.73;;;10.30;99.90;;;;;;5031411;28;20022;-57
2023/01/05 10:41:13;;;;;;;1.27;1.27;;;10.10;99.90;;;;;;5031266;28;20018;-54
2023/01/05 10:46:48;;;;;;;1.48;1.40;;;10.00;99.90;;;;;;5030540;28;20048;-55
2023/01/05 10:49:42;;;;;;;1.10;1.10;;;10.00;99.90;;;;;;5030773;28;20075;-57
2023/01/05 10:52:11;;;;;;;;;;;9.90;99.90;;;;;;5029265;28;20041;-58
2023/01/05 10:54:41;;;;;;;1.80;1.65;;;9.90;99.90;;;;;;5030496;28;20402;-56
2023/01/05 10:57:27;;;;;;;2.03;1.83;;;9.90;99.90;;;;;;5029413;28;20037;-57
2023/01/05 11:00:01;;;;;;;2.60;2.20;;;10.00;99.90;;;;;;5029795;28;20033;-57
2023/01/05 11:02:36;;;;;;;6.07;2.05;;;10.00;99.90;;;;;;5005955;28;20029;-57
2023/01/05 11:05:25;;;;;;;2.10;2.00;;;10.00;99.90;;;;;;5010821;28;20045;-58
2023/01/05 11:08:00;;;;;;;1.60;1.50;;;10.00;99.90;;;;;;5011436;28;20096;-56
2023/01/05 11:10:33;;;;;;;2.15;1.00;;;10.00;99.90;;;;;;5011541;28;20038;-57
2023/01/05 11:13:17;;;;;;;3.55;2.35;;;10.00;99.90;;;;;;5003708;28;22398;-56
2023/01/05 11:16:09;;;;;;;4.88;1.48;;;10.00;99.90;;;;;;5018279;28;20143;-58
2023/01/05 11:18:45;;;;;;;4.43;1.65;;;10.00;99.90;;;;;;5012674;28;20042;-56
2023/01/05 11:21:11;;;;;;;4.38;1.67;;;9.90;99.90;;;;;;5014218;28;20022;-56
2023/01/05 11:23:49;;;;;;;7.45;3.72;;;9.80;99.90;;;;;;5030619;28;20029;-56
2023/01/05 11:26:17;;;;;;;2.28;1.40;;;9.60;99.90;;;;;;5015976;28;20136;-57
2023/01/05 11:29:03;;;;;;;3.35;2.22;;;9.40;99.90;;;;;;5013552;28;20030;-58
2023/01/05 11:31:36;;;;;;;7.93;3.05;;;9.30;99.90;;;;;;5010315;28;20021;-57
2023/01/05 11:34:17;;;;;;;4.25;2.20;;;9.20;99.90;;;;;;5009555;28;20030;-58
2023/01/05 11:36:50;;;;;;;3.95;2.00;;;9.10;99.90;;;;;;5014869;28;20427;-57
2023/01/05 11:39:24;;;;;;;6.40;2.17;;;9.10;99.90;;;;;;5008650;28;20434;-55
2023/01/05 11:41:50;;;;;;;4.97;2.60;;;9.10;99.90;;;;;;5005779;28;20037;-56
2023/01/05 11:44:23;;;;;;;5.63;2.35;;;9.00;99.90;;;;;;5013033;28;20037;-58
2023/01/05 11:46:49;;;;;;;7.13;2.75;;;8.90;99.90;;;;;;5003818;28;20069;-57
2023/01/05 11:49:18;;;;;;;8.25;4.30;;;8.90;99.90;;;;;;5031549;28;20033;-56
2023/01/05 11:51:44;;;;;;;5.50;2.75;;;8.90;99.90;;;;;;5033928;28;20075;-58
2023/01/05 11:54:45;;;;;;;8.13;2.97;;;8.80;99.90;;;;;;5034623;28;20456;-57
2023/01/05 11:57:21;;;;;;;10.80;3.10;;;8.80;99.90;;;;;;4992332;28;20389;-58
2023/01/05 11:59:47;;;;;;;13.40;3.67;;;8.90;99.90;;;;;;5028472;28;20041;-57
2023/01/05 12:02:49;;;;;;;10.32;3.85;;;8.80;99.90;;;;;;5034154;28;20022;-58
2023/01/05 12:05:27;;;;;;;14.00;6.82;;;8.90;99.90;;;;;;5043715;28;20368;-58
2023/01/05 12:08:11;;;;;;;5.28;3.03;;;8.80;99.90;;;;;;5034190;28;20108;-58
2023/01/05 12:11:10;;;;;;;8.07;3.10;;;8.90;99.90;;;;;;5032360;28;20083;-57
2023/01/05 12:14:14;;;;;;;4.57;2.53;;;8.80;99.90;;;;;;5034003;28;20037;-57
2023/01/05 12:16:40;;;;;;;5.93;2.90;;;8.80;99.90;;;;;;4991615;28;20667;-55
2023/01/05 12:19:41;;;;;;;7.05;3.72;;;8.80;99.90;;;;;;4990489;28;20069;-57
2023/01/05 12:22:26;;;;;;;3.15;2.45;;;8.70;99.90;;;;;;4978630;28;20120;-58
2023/01/05 12:25:30;;;;;;;4.80;2.25;;;8.70;99.90;;;;;;5033459;28;20073;-56
2023/01/05 12:28:24;;;;;;;7.15;2.80;;;8.80;99.90;;;;;;5032858;28;20018;-58
2023/01/05 12:31:15;;;;;;;8.75;2.95;;;8.90;99.90;;;;;;5016508;28;20399;-59
2023/01/05 12:34:08;;;;;;;8.40;3.03;;;8.90;99.90;;;;;;5031626;28;20032;-57
2023/01/05 12:37:18;;;;;;;6.90;3.10;;;8.90;99.90;;;;;;5031359;28;20025;-56
2023/01/05 12:39:58;;;;;;;3.58;2.47;;;8.90;99.90;;;;;;5031589;28;20033;-58
2023/01/05 12:42:34;;;;;;;4.65;3.08;;;8.90;99.90;;;;;;5031370;28;20429;-58
2023/01/05 12:45:21;;;;;;;4.18;2.90;;;9.00;99.90;;;;;;5032714;28;20069;-58
2023/01/05 12:47:56;;;;;;;3.90;3.05;;;9.00;99.90;;;;;;5033181;28;20021;-54
2023/01/05 12:50:46;;;;;;;6.95;3.22;;;9.00;99.90;;;;;;5033372;28;20052;-56
2023/01/05 12:53:34;;;;;;;6.78;3.22;;;9.00;99.90;;;;;;5033432;28;20034;-54
2023/01/05 12:56:10;;;;;;;3.90;2.80;;;9.10;99.90;;;;;;5033064;28;20030;-58
2023/01/05 12:58:43;;;;;;;10.30;3.70;;;9.00;99.90;;;;;;5033202;28;20037;-56
2023/01/05 13:01:18;;;;;;;10.40;4.32;;;9.10;99.90;;;;;;5032853;28;20034;-58
2023/01/05 13:03:50;;;;;;;4.55;3.50;;;9.10;99.90;;;;;;5032115;28;20044;-59
2023/01/05 13:06:23;;;;;;;6.13;3.30;;;9.00;99.90;;;;;;5032308;28;20014;-55
2023/01/05 13:09:06;;;;;;;7.82;3.50;;;9.10;99.90;;;;;;5031824;28;20029;-58
2023/01/05 13:11:40;;;;;;;6.90;4.90;;;9.10;99.90;;;;;;5031321;28;20046;-59
2023/01/05 13:14:14;;;;;;;10.48;3.25;;;9.10;99.90;;;;;;5013181;28;20025;-58
2023/01/05 13:16:46;;;;;;;5.00;3.38;;;9.10;99.90;;;;;;5012148;28;20080;-58
2023/01/05 13:19:30;;;;;;;6.63;3.30;;;9.20;99.90;;;;;;5012461;28;20038;-57
2023/01/05 13:21:57;;;;;;;4.55;3.95;;;9.20;99.90;;;;;;5014742;28;20084;-56
2023/01/05 13:24:34;;;;;;;7.30;3.67;;;9.10;99.90;;;;;;5030943;28;20427;-54
2023/01/05 13:27:01;;;;;;;5.68;3.92;;;9.20;99.90;;;;;;5033123;28;20017;-55
2023/01/05 13:29:35;;;;;;;9.88;5.88;;;9.10;99.90;;;;;;5032195;28;20053;-56
2023/01/05 13:32:26;;;;;;;8.30;5.68;;;9.10;99.90;;;;;;5031427;28;20593;-57
2023/01/05 13:34:54;;;;;;;8.80;5.25;;;9.10;99.90;;;;;;5031501;28;20726;-53
2023/01/05 13:37:46;;;;;;;7.03;5.82;;;9.10;99.90;;;;;;5032486;28;20025;-58
2023/01/05 13:40:51;;;;;;;6.15;5.43;;;9.10;99.90;;;;;;5032650;28;20037;-53
2023/01/05 13:43:25;;;;;;;7.63;4.60;;;9.10;99.90;;;;;;5032535;28;20434;-57
2023/01/05 13:45:59;;;;;;;6.20;4.32;;;9.10;99.90;;;;;;5031987;28;20038;-55
2023/01/05 13:48:36;;;;;;;5.10;4.28;;;9.10;99.90;;;;;;5031866;28;20569;-55
2023/01/05 13:51:37;;;;;;;8.63;5.28;;;9.00;99.90;;;;;;5031887;28;20025;-56
2023/01/05 13:54:09;;;;;;;7.07;4.63;;;9.00;99.90;;;;;;5020444;28;20099;-57
2023/01/05 13:56:38;;;;;;;8.13;4.55;;;9.00;99.90;;;;;;5032143;28;20024;-55
2023/01/05 13:59:30;;;;;;;5.15;4.63;;;9.00;99.90;;;;;;5031640;28;20112;-57